sensor_id;sensor_type;location;lat;lon;timestamp;pressure;altitude;pressure_sealevel;temperature;humidity
48530;BME280;34927;37.302;-121.982;2022-08-19T00:00:46;100566.0;;;30.03;35.73
48530;BME280;34927;37.302;-121.982;2022-08-19T00:01:53;100564.0;;;29.94;35.53
48530;BME280;34927;37.302;-121.982;2022-08-19T00:02:56;100563.0;;;29.89;35.72
48530;BME280;34927;37.302;-121.982;2022-08-19T00:04:05;100562.0;;;29.84;35.46
48530;BME280;34927;37.302;-121.982;2022-08-19T00:05:13;100566.0;;;29.77;35.08
48530;BME280;34927;37.302;-121.982;2022-08-19T00:06:17;100565.0;;;29.75;35.05
48530;BME280;34927;37.302;-121.982;2022-08-19T00:07:21;100570.0;;;29.64;34.73
48530;BME280;34927;37.302;-121.982;2022-08-19T00:08:26;100569.0;;;29.66;34.91
48530;BME280;34927;37.302;-121.982;2022-08-19T00:09:31;100569.0;;;29.66;34.61
48530;BME280;34927;37.302;-121.982;2022-08-19T00:10:37;100576.0;;;29.50;34.91
48530;BME280;34927;37.302;-121.982;2022-08-19T00:11:48;100574.0;;;29.81;34.79
48530;BME280;34927;37.302;-121.982;2022-08-19T00:12:52;100572.0;;;30.04;34.54
48530;BME280;34927;37.302;-121.982;2022-08-19T00:13:57;100576.0;;;30.28;34.61
48530;BME280;34927;37.302;-121.982;2022-08-19T00:15:01;100574.0;;;30.49;34.42
48530;BME280;34927;37.302;-121.982;2022-08-19T00:16:07;100570.0;;;30.51;33.94
48530;BME280;34927;37.302;-121.982;2022-08-19T00:17:11;100571.0;;;30.29;34.46
48530;BME280;34927;37.302;-121.982;2022-08-19T00:18:16;100572.0;;;30.24;34.43
48530;BME280;34927;37.302;-121.982;2022-08-19T00:19:22;100573.0;;;30.13;34.22
48530;BME280;34927;37.302;-121.982;2022-08-19T00:20:27;100574.0;;;30.02;34.24
48530;BME280;34927;37.302;-121.982;2022-08-19T00:21:32;100574.0;;;29.98;34.26
48530;BME280;34927;37.302;-121.982;2022-08-19T00:22:36;100577.0;;;29.91;34.34
48530;BME280;34927;37.302;-121.982;2022-08-19T00:23:42;100577.0;;;29.78;34.40
48530;BME280;34927;37.302;-121.982;2022-08-19T00:24:46;100577.0;;;29.72;34.32
48530;BME280;34927;37.302;-121.982;2022-08-19T00:25:51;100578.0;;;29.71;34.10
48530;BME280;34927;37.302;-121.982;2022-08-19T00:26:57;100578.0;;;29.71;33.82
48530;BME280;34927;37.302;-121.982;2022-08-19T00:28:02;100579.0;;;29.66;33.58
48530;BME280;34927;37.302;-121.982;2022-08-19T00:29:12;100579.0;;;29.67;33.45
48530;BME280;34927;37.302;-121.982;2022-08-19T00:30:17;100582.0;;;29.54;33.52
48530;BME280;34927;37.302;-121.982;2022-08-19T00:31:22;100581.0;;;29.47;33.49
48530;BME280;34927;37.302;-121.982;2022-08-19T00:32:27;100578.0;;;29.53;33.10
48530;BME280;34927;37.302;-121.982;2022-08-19T00:33:32;100581.0;;;29.54;32.96
48530;BME280;34927;37.302;-121.982;2022-08-19T00:34:36;100580.0;;;29.26;33.94
48530;BME280;34927;37.302;-121.982;2022-08-19T00:35:42;100580.0;;;29.58;33.41
48530;BME280;34927;37.302;-121.982;2022-08-19T00:36:48;100581.0;;;29.84;33.42
48530;BME280;34927;37.302;-121.982;2022-08-19T00:37:51;100582.0;;;29.98;33.19
48530;BME280;34927;37.302;-121.982;2022-08-19T00:38:57;100579.0;;;30.22;33.07
48530;BME280;34927;37.302;-121.982;2022-08-19T00:40:05;100581.0;;;30.40;32.91
48530;BME280;34927;37.302;-121.982;2022-08-19T00:41:14;100582.0;;;30.22;33.01
48530;BME280;34927;37.302;-121.982;2022-08-19T00:42:18;100581.0;;;30.08;33.26
48530;BME280;34927;37.302;-121.982;2022-08-19T00:43:24;100582.0;;;29.88;33.32
48530;BME280;34927;37.302;-121.982;2022-08-19T00:44:28;100582.0;;;29.79;33.10
48530;BME280;34927;37.302;-121.982;2022-08-19T00:45:31;100588.0;;;29.74;33.11
48530;BME280;34927;37.302;-121.982;2022-08-19T00:46:39;100587.0;;;29.68;33.07
48530;BME280;34927;37.302;-121.982;2022-08-19T00:47:41;100587.0;;;29.67;33.24
48530;BME280;34927;37.302;-121.982;2022-08-19T00:48:46;100586.0;;;29.52;33.03
48530;BME280;34927;37.302;-121.982;2022-08-19T00:49:55;100589.0;;;29.43;32.91
48530;BME280;34927;37.302;-121.982;2022-08-19T00:51:02;100585.0;;;29.45;32.61
48530;BME280;34927;37.302;-121.982;2022-08-19T00:52:09;100586.0;;;29.43;32.61
48530;BME280;34927;37.302;-121.982;2022-08-19T00:53:20;100585.0;;;29.40;32.86
48530;BME280;34927;37.302;-121.982;2022-08-19T00:54:27;100588.0;;;29.42;32.34
48530;BME280;34927;37.302;-121.982;2022-08-19T00:55:32;100587.0;;;29.37;32.47
48530;BME280;34927;37.302;-121.982;2022-08-19T00:56:37;100583.0;;;29.32;32.46
48530;BME280;34927;37.302;-121.982;2022-08-19T00:57:45;100586.0;;;29.16;32.76
48530;BME280;34927;37.302;-121.982;2022-08-19T00:58:52;100584.0;;;29.23;33.06
48530;BME280;34927;37.302;-121.982;2022-08-19T00:59:58;100587.0;;;29.42;32.83
48530;BME280;34927;37.302;-121.982;2022-08-19T01:01:03;100587.0;;;29.57;32.65
48530;BME280;34927;37.302;-121.982;2022-08-19T01:02:07;100588.0;;;29.70;32.71
48530;BME280;34927;37.302;-121.982;2022-08-19T01:03:13;100583.0;;;29.80;32.72
48530;BME280;34927;37.302;-121.982;2022-08-19T01:04:16;100585.0;;;29.65;32.93
48530;BME280;34927;37.302;-121.982;2022-08-19T01:05:24;100586.0;;;29.69;33.07
48530;BME280;34927;37.302;-121.982;2022-08-19T01:06:32;100587.0;;;29.56;32.96
48530;BME280;34927;37.302;-121.982;2022-08-19T01:07:38;100589.0;;;29.51;32.91
48530;BME280;34927;37.302;-121.982;2022-08-19T01:08:41;100586.0;;;29.34;33.18
48530;BME280;34927;37.302;-121.982;2022-08-19T01:09:47;100587.0;;;29.29;33.06
48530;BME280;34927;37.302;-121.982;2022-08-19T01:10:53;100590.0;;;29.18;33.32
48530;BME280;34927;37.302;-121.982;2022-08-19T01:11:56;100589.0;;;29.14;33.18
48530;BME280;34927;37.302;-121.982;2022-08-19T01:13:03;100589.0;;;29.12;32.97
48530;BME280;34927;37.302;-121.982;2022-08-19T01:14:07;100588.0;;;29.00;32.73
48530;BME280;34927;37.302;-121.982;2022-08-19T01:15:19;100586.0;;;28.98;33.07
48530;BME280;34927;37.302;-121.982;2022-08-19T01:16:24;100588.0;;;28.87;32.87
48530;BME280;34927;37.302;-121.982;2022-08-19T01:17:32;100589.0;;;28.74;33.88
48530;BME280;34927;37.302;-121.982;2022-08-19T01:18:41;100589.0;;;28.93;33.58
48530;BME280;34927;37.302;-121.982;2022-08-19T01:19:47;100588.0;;;29.12;33.52
48530;BME280;34927;37.302;-121.982;2022-08-19T01:20:52;100588.0;;;29.13;33.48
48530;BME280;34927;37.302;-121.982;2022-08-19T01:22:03;100588.0;;;29.30;33.35
48530;BME280;34927;37.302;-121.982;2022-08-19T01:23:12;100588.0;;;29.35;33.30
48530;BME280;34927;37.302;-121.982;2022-08-19T01:24:16;100586.0;;;29.41;33.20
48530;BME280;34927;37.302;-121.982;2022-08-19T01:25:26;100586.0;;;29.45;33.14
48530;BME280;34927;37.302;-121.982;2022-08-19T01:26:38;100584.0;;;29.50;33.13
48530;BME280;34927;37.302;-121.982;2022-08-19T01:27:43;100585.0;;;29.51;33.17
48530;BME280;34927;37.302;-121.982;2022-08-19T01:28:48;100583.0;;;29.51;33.18
48530;BME280;34927;37.302;-121.982;2022-08-19T01:29:51;100580.0;;;29.51;33.21
48530;BME280;34927;37.302;-121.982;2022-08-19T01:30:56;100579.0;;;29.49;33.19
48530;BME280;34927;37.302;-121.982;2022-08-19T01:32:02;100579.0;;;29.53;33.26
48530;BME280;34927;37.302;-121.982;2022-08-19T01:33:06;100580.0;;;29.52;33.22
48530;BME280;34927;37.302;-121.982;2022-08-19T01:34:11;100582.0;;;29.55;33.11
48530;BME280;34927;37.302;-121.982;2022-08-19T01:35:18;100584.0;;;29.49;33.30
48530;BME280;34927;37.302;-121.982;2022-08-19T01:36:28;100583.0;;;29.52;33.69
48530;BME280;34927;37.302;-121.982;2022-08-19T01:37:42;100580.0;;;29.49;33.83
48530;BME280;34927;37.302;-121.982;2022-08-19T01:38:47;100583.0;;;29.40;34.05
48530;BME280;34927;37.302;-121.982;2022-08-19T01:39:51;100583.0;;;29.46;33.86
48530;BME280;34927;37.302;-121.982;2022-08-19T01:40:56;100581.0;;;29.44;33.97
48530;BME280;34927;37.302;-121.982;2022-08-19T01:42:02;100581.0;;;29.43;34.09
48530;BME280;34927;37.302;-121.982;2022-08-19T01:43:07;100584.0;;;29.45;34.29
48530;BME280;34927;37.302;-121.982;2022-08-19T01:44:12;100588.0;;;29.45;34.41
48530;BME280;34927;37.302;-121.982;2022-08-19T01:45:17;100591.0;;;29.42;34.90
48530;BME280;34927;37.302;-121.982;2022-08-19T01:46:22;100589.0;;;29.40;35.32
48530;BME280;34927;37.302;-121.982;2022-08-19T01:47:27;100588.0;;;29.39;35.52
48530;BME280;34927;37.302;-121.982;2022-08-19T01:48:35;100589.0;;;29.37;36.01
48530;BME280;34927;37.302;-121.982;2022-08-19T01:49:42;100589.0;;;29.37;35.77
48530;BME280;34927;37.302;-121.982;2022-08-19T01:50:46;100587.0;;;29.37;35.78
48530;BME280;34927;37.302;-121.982;2022-08-19T01:51:51;100591.0;;;29.38;35.83
48530;BME280;34927;37.302;-121.982;2022-08-19T01:52:57;100591.0;;;29.36;35.94
48530;BME280;34927;37.302;-121.982;2022-08-19T01:54:02;100592.0;;;29.37;36.01
48530;BME280;34927;37.302;-121.982;2022-08-19T01:55:09;100590.0;;;29.34;36.07
48530;BME280;34927;37.302;-121.982;2022-08-19T01:56:17;100592.0;;;29.37;36.17
48530;BME280;34927;37.302;-121.982;2022-08-19T01:57:22;100591.0;;;29.32;36.31
48530;BME280;34927;37.302;-121.982;2022-08-19T01:58:29;100592.0;;;29.32;36.33
48530;BME280;34927;37.302;-121.982;2022-08-19T01:59:36;100589.0;;;29.29;36.41
48530;BME280;34927;37.302;-121.982;2022-08-19T02:00:43;100591.0;;;29.27;36.49
48530;BME280;34927;37.302;-121.982;2022-08-19T02:01:46;100592.0;;;29.25;36.60
48530;BME280;34927;37.302;-121.982;2022-08-19T02:02:51;100593.0;;;29.28;36.54
48530;BME280;34927;37.302;-121.982;2022-08-19T02:03:56;100595.0;;;29.29;36.58
48530;BME280;34927;37.302;-121.982;2022-08-19T02:05:02;100593.0;;;29.16;36.76
48530;BME280;34927;37.302;-121.982;2022-08-19T02:06:06;100597.0;;;29.09;36.93
48530;BME280;34927;37.302;-121.982;2022-08-19T02:07:12;100598.0;;;28.89;37.42
48530;BME280;34927;37.302;-121.982;2022-08-19T02:08:16;100597.0;;;28.86;37.53
48530;BME280;34927;37.302;-121.982;2022-08-19T02:09:22;100599.0;;;28.71;37.92
48530;BME280;34927;37.302;-121.982;2022-08-19T02:10:26;100600.0;;;28.70;37.98
48530;BME280;34927;37.302;-121.982;2022-08-19T02:11:33;100599.0;;;28.75;37.88
48530;BME280;34927;37.302;-121.982;2022-08-19T02:12:36;100601.0;;;28.58;38.24
48530;BME280;34927;37.302;-121.982;2022-08-19T02:13:42;100602.0;;;28.63;38.19
48530;BME280;34927;37.302;-121.982;2022-08-19T02:14:47;100605.0;;;28.57;38.25
48530;BME280;34927;37.302;-121.982;2022-08-19T02:15:51;100606.0;;;28.51;38.41
48530;BME280;34927;37.302;-121.982;2022-08-19T02:16:57;100607.0;;;28.47;38.47
48530;BME280;34927;37.302;-121.982;2022-08-19T02:18:02;100605.0;;;28.41;38.58
48530;BME280;34927;37.302;-121.982;2022-08-19T02:19:07;100601.0;;;28.43;38.43
48530;BME280;34927;37.302;-121.982;2022-08-19T02:20:12;100603.0;;;28.44;38.59
48530;BME280;34927;37.302;-121.982;2022-08-19T02:21:19;100601.0;;;28.41;38.70
48530;BME280;34927;37.302;-121.982;2022-08-19T02:22:22;100601.0;;;28.30;39.00
48530;BME280;34927;37.302;-121.982;2022-08-19T02:23:27;100600.0;;;28.28;39.02
48530;BME280;34927;37.302;-121.982;2022-08-19T02:24:32;100602.0;;;28.20;39.28
48530;BME280;34927;37.302;-121.982;2022-08-19T02:25:37;100602.0;;;28.22;39.18
48530;BME280;34927;37.302;-121.982;2022-08-19T02:26:41;100604.0;;;28.16;39.33
48530;BME280;34927;37.302;-121.982;2022-08-19T02:27:47;100605.0;;;28.21;39.36
48530;BME280;34927;37.302;-121.982;2022-08-19T02:28:52;100607.0;;;28.09;39.56
48530;BME280;34927;37.302;-121.982;2022-08-19T02:29:56;100611.0;;;28.16;39.40
48530;BME280;34927;37.302;-121.982;2022-08-19T02:31:02;100612.0;;;28.15;39.56
48530;BME280;34927;37.302;-121.982;2022-08-19T02:32:07;100612.0;;;28.03;39.81
48530;BME280;34927;37.302;-121.982;2022-08-19T02:33:12;100611.0;;;28.09;39.75
48530;BME280;34927;37.302;-121.982;2022-08-19T02:34:17;100611.0;;;28.08;39.75
48530;BME280;34927;37.302;-121.982;2022-08-19T02:35:22;100613.0;;;28.06;39.82
48530;BME280;34927;37.302;-121.982;2022-08-19T02:36:26;100612.0;;;28.02;39.98
48530;BME280;34927;37.302;-121.982;2022-08-19T02:37:32;100612.0;;;28.01;40.06
48530;BME280;34927;37.302;-121.982;2022-08-19T02:38:37;100612.0;;;27.90;40.09
48530;BME280;34927;37.302;-121.982;2022-08-19T02:39:42;100611.0;;;27.87;40.33
48530;BME280;34927;37.302;-121.982;2022-08-19T02:40:50;100612.0;;;27.91;40.26
48530;BME280;34927;37.302;-121.982;2022-08-19T02:41:56;100609.0;;;27.87;40.37
48530;BME280;34927;37.302;-121.982;2022-08-19T02:43:02;100609.0;;;27.92;40.20
48530;BME280;34927;37.302;-121.982;2022-08-19T02:44:07;100610.0;;;27.82;40.51
48530;BME280;34927;37.302;-121.982;2022-08-19T02:45:12;100611.0;;;27.70;40.72
48530;BME280;34927;37.302;-121.982;2022-08-19T02:46:19;100611.0;;;27.81;40.42
48530;BME280;34927;37.302;-121.982;2022-08-19T02:47:26;100614.0;;;27.81;40.44
48530;BME280;34927;37.302;-121.982;2022-08-19T02:48:31;100618.0;;;27.67;40.72
48530;BME280;34927;37.302;-121.982;2022-08-19T02:49:37;100622.0;;;27.64;40.75
48530;BME280;34927;37.302;-121.982;2022-08-19T02:50:41;100624.0;;;27.68;40.70
48530;BME280;34927;37.302;-121.982;2022-08-19T02:51:46;100626.0;;;27.51;40.94
48530;BME280;34927;37.302;-121.982;2022-08-19T02:52:52;100624.0;;;27.48;41.04
48530;BME280;34927;37.302;-121.982;2022-08-19T02:53:57;100627.0;;;27.56;40.81
48530;BME280;34927;37.302;-121.982;2022-08-19T02:55:02;100628.0;;;27.66;40.67
48530;BME280;34927;37.302;-121.982;2022-08-19T02:56:07;100629.0;;;27.57;40.87
48530;BME280;34927;37.302;-121.982;2022-08-19T02:57:12;100632.0;;;27.56;40.87
48530;BME280;34927;37.302;-121.982;2022-08-19T02:58:17;100631.0;;;27.51;40.97
48530;BME280;34927;37.302;-121.982;2022-08-19T02:59:21;100636.0;;;27.51;41.01
48530;BME280;34927;37.302;-121.982;2022-08-19T03:00:27;100638.0;;;27.51;41.00
48530;BME280;34927;37.302;-121.982;2022-08-19T03:01:32;100640.0;;;27.46;41.21
48530;BME280;34927;37.302;-121.982;2022-08-19T03:02:36;100642.0;;;27.47;41.23
48530;BME280;34927;37.302;-121.982;2022-08-19T03:03:41;100641.0;;;27.43;41.34
48530;BME280;34927;37.302;-121.982;2022-08-19T03:04:47;100643.0;;;27.43;41.39
48530;BME280;34927;37.302;-121.982;2022-08-19T03:05:51;100643.0;;;27.32;41.64
48530;BME280;34927;37.302;-121.982;2022-08-19T03:07:02;100646.0;;;27.48;41.26
48530;BME280;34927;37.302;-121.982;2022-08-19T03:08:06;100647.0;;;27.36;41.32
48530;BME280;34927;37.302;-121.982;2022-08-19T03:09:12;100649.0;;;27.42;41.32
48530;BME280;34927;37.302;-121.982;2022-08-19T03:10:17;100653.0;;;27.51;41.21
48530;BME280;34927;37.302;-121.982;2022-08-19T03:11:26;100656.0;;;27.45;41.39
48530;BME280;34927;37.302;-121.982;2022-08-19T03:12:34;100658.0;;;27.39;41.58
48530;BME280;34927;37.302;-121.982;2022-08-19T03:13:37;100658.0;;;27.36;41.59
48530;BME280;34927;37.302;-121.982;2022-08-19T03:14:42;100661.0;;;27.23;41.89
48530;BME280;34927;37.302;-121.982;2022-08-19T03:15:47;100660.0;;;27.25;41.86
48530;BME280;34927;37.302;-121.982;2022-08-19T03:16:52;100660.0;;;27.21;41.96
48530;BME280;34927;37.302;-121.982;2022-08-19T03:17:56;100659.0;;;27.23;41.90
48530;BME280;34927;37.302;-121.982;2022-08-19T03:19:02;100659.0;;;27.20;41.97
48530;BME280;34927;37.302;-121.982;2022-08-19T03:20:07;100659.0;;;27.19;41.99
48530;BME280;34927;37.302;-121.982;2022-08-19T03:21:16;100659.0;;;27.22;41.94
48530;BME280;34927;37.302;-121.982;2022-08-19T03:22:21;100662.0;;;27.06;42.16
48530;BME280;34927;37.302;-121.982;2022-08-19T03:23:26;100664.0;;;27.18;41.94
48530;BME280;34927;37.302;-121.982;2022-08-19T03:24:32;100662.0;;;27.13;41.99
48530;BME280;34927;37.302;-121.982;2022-08-19T03:25:39;100664.0;;;27.12;42.04
48530;BME280;34927;37.302;-121.982;2022-08-19T03:26:44;100662.0;;;27.09;42.12
48530;BME280;34927;37.302;-121.982;2022-08-19T03:27:47;100662.0;;;27.05;42.20
48530;BME280;34927;37.302;-121.982;2022-08-19T03:28:52;100663.0;;;26.95;42.41
48530;BME280;34927;37.302;-121.982;2022-08-19T03:29:56;100668.0;;;27.11;42.04
48530;BME280;34927;37.302;-121.982;2022-08-19T03:31:05;100669.0;;;27.06;42.07
48530;BME280;34927;37.302;-121.982;2022-08-19T03:32:12;100668.0;;;27.23;41.78
48530;BME280;34927;37.302;-121.982;2022-08-19T03:33:16;100671.0;;;27.20;41.84
48530;BME280;34927;37.302;-121.982;2022-08-19T03:34:24;100669.0;;;27.07;42.31
48530;BME280;34927;37.302;-121.982;2022-08-19T03:35:26;100670.0;;;27.02;42.38
48530;BME280;34927;37.302;-121.982;2022-08-19T03:36:31;100671.0;;;26.93;42.79
48530;BME280;34927;37.302;-121.982;2022-08-19T03:37:37;100668.0;;;26.90;42.68
48530;BME280;34927;37.302;-121.982;2022-08-19T03:38:44;100667.0;;;26.76;43.08
48530;BME280;34927;37.302;-121.982;2022-08-19T03:39:46;100666.0;;;26.75;43.16
48530;BME280;34927;37.302;-121.982;2022-08-19T03:40:52;100663.0;;;26.73;43.20
48530;BME280;34927;37.302;-121.982;2022-08-19T03:41:56;100665.0;;;26.83;42.94
48530;BME280;34927;37.302;-121.982;2022-08-19T03:43:02;100664.0;;;26.90;42.76
48530;BME280;34927;37.302;-121.982;2022-08-19T03:44:07;100668.0;;;26.57;43.41
48530;BME280;34927;37.302;-121.982;2022-08-19T03:45:12;100668.0;;;26.64;43.32
48530;BME280;34927;37.302;-121.982;2022-08-19T03:46:19;100665.0;;;26.65;43.24
48530;BME280;34927;37.302;-121.982;2022-08-19T03:47:26;100667.0;;;26.43;43.88
48530;BME280;34927;37.302;-121.982;2022-08-19T03:48:32;100668.0;;;26.49;43.57
48530;BME280;34927;37.302;-121.982;2022-08-19T03:49:36;100666.0;;;26.45;43.64
48530;BME280;34927;37.302;-121.982;2022-08-19T03:50:41;100667.0;;;26.29;44.09
48530;BME280;34927;37.302;-121.982;2022-08-19T03:51:48;100666.0;;;26.03;44.65
48530;BME280;34927;37.302;-121.982;2022-08-19T03:52:52;100668.0;;;26.34;43.92
48530;BME280;34927;37.302;-121.982;2022-08-19T03:53:58;100670.0;;;26.28;44.06
48530;BME280;34927;37.302;-121.982;2022-08-19T03:55:02;100670.0;;;26.31;44.06
48530;BME280;34927;37.302;-121.982;2022-08-19T03:56:09;100672.0;;;26.35;43.99
48530;BME280;34927;37.302;-121.982;2022-08-19T03:57:12;100672.0;;;26.35;43.78
48530;BME280;34927;37.302;-121.982;2022-08-19T03:58:16;100673.0;;;26.14;44.43
48530;BME280;34927;37.302;-121.982;2022-08-19T03:59:24;100678.0;;;25.97;44.95
48530;BME280;34927;37.302;-121.982;2022-08-19T04:00:27;100676.0;;;26.27;44.27
48530;BME280;34927;37.302;-121.982;2022-08-19T04:01:31;100678.0;;;26.07;44.64
48530;BME280;34927;37.302;-121.982;2022-08-19T04:02:36;100677.0;;;26.12;44.80
48530;BME280;34927;37.302;-121.982;2022-08-19T04:03:42;100678.0;;;26.05;44.90
48530;BME280;34927;37.302;-121.982;2022-08-19T04:04:46;100676.0;;;26.12;44.58
48530;BME280;34927;37.302;-121.982;2022-08-19T04:05:51;100678.0;;;26.20;44.54
48530;BME280;34927;37.302;-121.982;2022-08-19T04:06:57;100678.0;;;26.02;45.01
48530;BME280;34927;37.302;-121.982;2022-08-19T04:08:02;100676.0;;;26.17;44.72
48530;BME280;34927;37.302;-121.982;2022-08-19T04:09:08;100680.0;;;25.86;45.36
48530;BME280;34927;37.302;-121.982;2022-08-19T04:10:11;100680.0;;;25.97;44.97
48530;BME280;34927;37.302;-121.982;2022-08-19T04:11:19;100679.0;;;26.15;44.79
48530;BME280;34927;37.302;-121.982;2022-08-19T04:12:22;100679.0;;;26.19;44.60
48530;BME280;34927;37.302;-121.982;2022-08-19T04:13:26;100682.0;;;25.99;45.17
48530;BME280;34927;37.302;-121.982;2022-08-19T04:14:32;100683.0;;;26.02;45.04
48530;BME280;34927;37.302;-121.982;2022-08-19T04:15:40;100684.0;;;26.11;44.98
48530;BME280;34927;37.302;-121.982;2022-08-19T04:16:47;100685.0;;;26.13;44.84
48530;BME280;34927;37.302;-121.982;2022-08-19T04:17:51;100687.0;;;26.08;44.95
48530;BME280;34927;37.302;-121.982;2022-08-19T04:19:00;100690.0;;;25.87;45.47
48530;BME280;34927;37.302;-121.982;2022-08-19T04:20:07;100692.0;;;25.88;45.44
48530;BME280;34927;37.302;-121.982;2022-08-19T04:21:17;100694.0;;;25.83;45.63
48530;BME280;34927;37.302;-121.982;2022-08-19T04:22:22;100696.0;;;25.71;45.80
48530;BME280;34927;37.302;-121.982;2022-08-19T04:23:27;100697.0;;;25.66;46.07
48530;BME280;34927;37.302;-121.982;2022-08-19T04:24:33;100699.0;;;25.82;45.53
48530;BME280;34927;37.302;-121.982;2022-08-19T04:25:39;100697.0;;;25.95;45.32
48530;BME280;34927;37.302;-121.982;2022-08-19T04:26:42;100700.0;;;25.80;45.59
48530;BME280;34927;37.302;-121.982;2022-08-19T04:27:46;100702.0;;;25.89;45.45
48530;BME280;34927;37.302;-121.982;2022-08-19T04:28:52;100699.0;;;25.89;45.25
48530;BME280;34927;37.302;-121.982;2022-08-19T04:29:56;100699.0;;;25.93;45.39
48530;BME280;34927;37.302;-121.982;2022-08-19T04:31:01;100699.0;;;25.88;45.34
48530;BME280;34927;37.302;-121.982;2022-08-19T04:32:06;100696.0;;;25.77;45.45
48530;BME280;34927;37.302;-121.982;2022-08-19T04:33:13;100699.0;;;25.83;45.74
48530;BME280;34927;37.302;-121.982;2022-08-19T04:34:19;100701.0;;;25.62;46.14
48530;BME280;34927;37.302;-121.982;2022-08-19T04:35:21;100703.0;;;25.63;46.06
48530;BME280;34927;37.302;-121.982;2022-08-19T04:36:28;100704.0;;;25.61;46.08
48530;BME280;34927;37.302;-121.982;2022-08-19T04:37:31;100704.0;;;25.82;45.51
48530;BME280;34927;37.302;-121.982;2022-08-19T04:38:36;100706.0;;;25.59;46.13
48530;BME280;34927;37.302;-121.982;2022-08-19T04:39:41;100708.0;;;25.54;46.16
48530;BME280;34927;37.302;-121.982;2022-08-19T04:40:49;100709.0;;;25.46;46.51
48530;BME280;34927;37.302;-121.982;2022-08-19T04:41:51;100707.0;;;25.30;46.83
48530;BME280;34927;37.302;-121.982;2022-08-19T04:42:56;100708.0;;;25.28;46.89
48530;BME280;34927;37.302;-121.982;2022-08-19T04:44:01;100708.0;;;25.41;46.57
48530;BME280;34927;37.302;-121.982;2022-08-19T04:45:09;100706.0;;;25.41;46.65
48530;BME280;34927;37.302;-121.982;2022-08-19T04:46:13;100706.0;;;25.56;46.16
48530;BME280;34927;37.302;-121.982;2022-08-19T04:47:17;100707.0;;;25.51;46.29
48530;BME280;34927;37.302;-121.982;2022-08-19T04:48:22;100705.0;;;25.42;46.38
48530;BME280;34927;37.302;-121.982;2022-08-19T04:49:26;100710.0;;;25.46;46.34
48530;BME280;34927;37.302;-121.982;2022-08-19T04:50:31;100706.0;;;25.56;46.23
48530;BME280;34927;37.302;-121.982;2022-08-19T04:51:39;100707.0;;;25.50;46.43
48530;BME280;34927;37.302;-121.982;2022-08-19T04:52:41;100707.0;;;25.38;46.54
48530;BME280;34927;37.302;-121.982;2022-08-19T04:53:46;100710.0;;;25.07;47.40
48530;BME280;34927;37.302;-121.982;2022-08-19T04:54:49;100708.0;;;25.08;47.27
48530;BME280;34927;37.302;-121.982;2022-08-19T04:55:51;100709.0;;;25.15;47.33
48530;BME280;34927;37.302;-121.982;2022-08-19T04:56:56;100709.0;;;25.23;46.99
48530;BME280;34927;37.302;-121.982;2022-08-19T04:58:02;100709.0;;;25.28;47.10
48530;BME280;34927;37.302;-121.982;2022-08-19T04:59:07;100708.0;;;25.33;46.80
48530;BME280;34927;37.302;-121.982;2022-08-19T05:00:12;100710.0;;;25.13;47.20
48530;BME280;34927;37.302;-121.982;2022-08-19T05:01:19;100708.0;;;25.11;47.50
48530;BME280;34927;37.302;-121.982;2022-08-19T05:02:26;100706.0;;;24.95;47.68
48530;BME280;34927;37.302;-121.982;2022-08-19T05:03:33;100708.0;;;24.96;47.74
48530;BME280;34927;37.302;-121.982;2022-08-19T05:04:37;100708.0;;;24.96;47.89
48530;BME280;34927;37.302;-121.982;2022-08-19T05:05:42;100704.0;;;25.06;47.48
48530;BME280;34927;37.302;-121.982;2022-08-19T05:06:48;100702.0;;;25.04;47.53
48530;BME280;34927;37.302;-121.982;2022-08-19T05:07:51;100703.0;;;24.88;47.90
48530;BME280;34927;37.302;-121.982;2022-08-19T05:08:56;100701.0;;;24.98;47.65
48530;BME280;34927;37.302;-121.982;2022-08-19T05:10:02;100702.0;;;25.03;47.72
48530;BME280;34927;37.302;-121.982;2022-08-19T05:11:10;100702.0;;;24.87;48.07
48530;BME280;34927;37.302;-121.982;2022-08-19T05:12:17;100702.0;;;25.02;47.76
48530;BME280;34927;37.302;-121.982;2022-08-19T05:13:21;100702.0;;;24.72;48.59
48530;BME280;34927;37.302;-121.982;2022-08-19T05:14:26;100699.0;;;24.71;48.40
48530;BME280;34927;37.302;-121.982;2022-08-19T05:15:32;100701.0;;;24.80;48.55
48530;BME280;34927;37.302;-121.982;2022-08-19T05:16:37;100699.0;;;24.88;48.08
48530;BME280;34927;37.302;-121.982;2022-08-19T05:17:41;100699.0;;;24.91;48.02
48530;BME280;34927;37.302;-121.982;2022-08-19T05:18:47;100700.0;;;24.54;48.76
48530;BME280;34927;37.302;-121.982;2022-08-19T05:19:51;100697.0;;;24.68;48.68
48530;BME280;34927;37.302;-121.982;2022-08-19T05:20:56;100695.0;;;24.59;48.74
48530;BME280;34927;37.302;-121.982;2022-08-19T05:22:01;100690.0;;;24.66;48.51
48530;BME280;34927;37.302;-121.982;2022-08-19T05:23:07;100689.0;;;24.79;48.17
48530;BME280;34927;37.302;-121.982;2022-08-19T05:24:12;100692.0;;;24.59;48.71
48530;BME280;34927;37.302;-121.982;2022-08-19T05:25:18;100687.0;;;24.65;48.39
48530;BME280;34927;37.302;-121.982;2022-08-19T05:26:22;100687.0;;;24.65;48.32
48530;BME280;34927;37.302;-121.982;2022-08-19T05:27:26;100685.0;;;24.66;48.39
48530;BME280;34927;37.302;-121.982;2022-08-19T05:28:32;100685.0;;;24.56;48.70
48530;BME280;34927;37.302;-121.982;2022-08-19T05:29:37;100680.0;;;24.67;48.25
48530;BME280;34927;37.302;-121.982;2022-08-19T05:30:41;100679.0;;;24.68;48.32
48530;BME280;34927;37.302;-121.982;2022-08-19T05:31:48;100681.0;;;24.52;48.72
48530;BME280;34927;37.302;-121.982;2022-08-19T05:32:51;100678.0;;;24.41;48.91
48530;BME280;34927;37.302;-121.982;2022-08-19T05:33:57;100681.0;;;24.48;48.78